sensor_id;sensor_type;location;lat;lon;timestamp;P1;durP1;ratioP1;P2;durP2;ratioP2
25932;SDS011;13731;51.166;4.474;2024-01-11T00:00:42;42.83;;;27.10;;
25932;SDS011;13731;51.166;4.474;2024-01-11T00:03:08;46.83;;;28.58;;
25932;SDS011;13731;51.166;4.474;2024-01-11T00:05:34;48.38;;;29.77;;
25932;SDS011;13731;51.166;4.474;2024-01-11T00:08:00;47.80;;;29.33;;
25932;SDS011;13731;51.166;4.474;2024-01-11T00:10:26;47.80;;;28.83;;
25932;SDS011;13731;51.166;4.474;2024-01-11T00:12:52;47.33;;;29.50;;
25932;SDS011;13731;51.166;4.474;2024-01-11T00:15:19;45.38;;;28.67;;
25932;SDS011;13731;51.166;4.474;2024-01-11T00:17:45;46.30;;;29.15;;
25932;SDS011;13731;51.166;4.474;2024-01-11T00:20:11;48.10;;;29.00;;
25932;SDS011;13731;51.166;4.474;2024-01-11T00:22:36;43.00;;;27.73;;
25932;SDS011;13731;51.166;4.474;2024-01-11T00:25:02;45.40;;;29.05;;
25932;SDS011;13731;51.166;4.474;2024-01-11T00:27:29;54.80;;;29.88;;
25932;SDS011;13731;51.166;4.474;2024-01-11T00:29:55;43.53;;;29.02;;
25932;SDS011;13731;51.166;4.474;2024-01-11T00:32:21;44.45;;;30.63;;
25932;SDS011;13731;51.166;4.474;2024-01-11T00:34:48;44.58;;;29.70;;
25932;SDS011;13731;51.166;4.474;2024-01-11T00:37:16;49.78;;;31.50;;
25932;SDS011;13731;51.166;4.474;2024-01-11T00:39:42;48.85;;;30.35;;
25932;SDS011;13731;51.166;4.474;2024-01-11T00:42:09;49.42;;;31.63;;
25932;SDS011;13731;51.166;4.474;2024-01-11T00:44:35;46.90;;;31.00;;
25932;SDS011;13731;51.166;4.474;2024-01-11T00:47:01;45.40;;;30.88;;
25932;SDS011;13731;51.166;4.474;2024-01-11T00:49:27;47.00;;;31.83;;
25932;SDS011;13731;51.166;4.474;2024-01-11T00:51:53;47.40;;;31.52;;
25932;SDS011;13731;51.166;4.474;2024-01-11T00:54:19;40.40;;;29.02;;
25932;SDS011;13731;51.166;4.474;2024-01-11T00:56:45;44.58;;;29.75;;
25932;SDS011;13731;51.166;4.474;2024-01-11T00:59:12;49.47;;;30.00;;
25932;SDS011;13731;51.166;4.474;2024-01-11T01:01:38;41.55;;;27.75;;
25932;SDS011;13731;51.166;4.474;2024-01-11T01:04:04;52.67;;;29.80;;
25932;SDS011;13731;51.166;4.474;2024-01-11T01:06:30;49.03;;;29.33;;
25932;SDS011;13731;51.166;4.474;2024-01-11T01:08:55;42.75;;;27.70;;
25932;SDS011;13731;51.166;4.474;2024-01-11T01:11:21;45.97;;;26.95;;
25932;SDS011;13731;51.166;4.474;2024-01-11T01:13:47;45.72;;;27.83;;
25932;SDS011;13731;51.166;4.474;2024-01-11T01:16:13;47.22;;;30.05;;
25932;SDS011;13731;51.166;4.474;2024-01-11T01:18:40;47.78;;;30.50;;
25932;SDS011;13731;51.166;4.474;2024-01-11T01:21:05;50.28;;;30.23;;
25932;SDS011;13731;51.166;4.474;2024-01-11T01:23:32;46.85;;;30.98;;
25932;SDS011;13731;51.166;4.474;2024-01-11T01:25:58;46.08;;;31.38;;
25932;SDS011;13731;51.166;4.474;2024-01-11T01:28:23;49.30;;;34.28;;
25932;SDS011;13731;51.166;4.474;2024-01-11T01:30:50;51.80;;;34.40;;
25932;SDS011;13731;51.166;4.474;2024-01-11T01:33:17;48.75;;;33.30;;
25932;SDS011;13731;51.166;4.474;2024-01-11T01:35:43;53.47;;;32.80;;
25932;SDS011;13731;51.166;4.474;2024-01-11T01:38:11;51.63;;;34.63;;
25932;SDS011;13731;51.166;4.474;2024-01-11T01:40:38;56.00;;;35.60;;
25932;SDS011;13731;51.166;4.474;2024-01-11T01:43:06;48.60;;;33.10;;
25932;SDS011;13731;51.166;4.474;2024-01-11T01:45:34;47.58;;;32.20;;
25932;SDS011;13731;51.166;4.474;2024-01-11T01:48:00;48.92;;;32.40;;
25932;SDS011;13731;51.166;4.474;2024-01-11T01:50:27;50.75;;;32.28;;
25932;SDS011;13731;51.166;4.474;2024-01-11T01:52:53;52.35;;;33.22;;
25932;SDS011;13731;51.166;4.474;2024-01-11T01:55:21;56.80;;;32.17;;
25932;SDS011;13731;51.166;4.474;2024-01-11T01:57:48;51.50;;;31.20;;
25932;SDS011;13731;51.166;4.474;2024-01-11T02:00:16;50.83;;;32.03;;
25932;SDS011;13731;51.166;4.474;2024-01-11T02:02:44;55.67;;;34.17;;
25932;SDS011;13731;51.166;4.474;2024-01-11T02:05:12;55.35;;;35.13;;
25932;SDS011;13731;51.166;4.474;2024-01-11T02:07:39;51.75;;;32.17;;
25932;SDS011;13731;51.166;4.474;2024-01-11T02:10:06;48.90;;;32.60;;
25932;SDS011;13731;51.166;4.474;2024-01-11T02:12:34;49.72;;;33.13;;
25932;SDS011;13731;51.166;4.474;2024-01-11T02:15:01;50.15;;;36.10;;
25932;SDS011;13731;51.166;4.474;2024-01-11T02:17:29;48.20;;;33.45;;
25932;SDS011;13731;51.166;4.474;2024-01-11T02:19:55;55.88;;;32.67;;
25932;SDS011;13731;51.166;4.474;2024-01-11T02:22:23;43.80;;;30.52;;
25932;SDS011;13731;51.166;4.474;2024-01-11T02:24:54;46.58;;;33.33;;
25932;SDS011;13731;51.166;4.474;2024-01-11T02:27:22;55.75;;;35.85;;
25932;SDS011;13731;51.166;4.474;2024-01-11T02:29:48;55.85;;;36.42;;
25932;SDS011;13731;51.166;4.474;2024-01-11T02:32:14;55.80;;;37.53;;
25932;SDS011;13731;51.166;4.474;2024-01-11T02:34:40;53.00;;;37.10;;
25932;SDS011;13731;51.166;4.474;2024-01-11T02:37:07;53.63;;;35.95;;
25932;SDS011;13731;51.166;4.474;2024-01-11T02:39:33;56.97;;;37.08;;
25932;SDS011;13731;51.166;4.474;2024-01-11T02:41:59;55.53;;;38.15;;
25932;SDS011;13731;51.166;4.474;2024-01-11T02:44:25;50.75;;;36.95;;
25932;SDS011;13731;51.166;4.474;2024-01-11T02:46:51;53.58;;;38.70;;
25932;SDS011;13731;51.166;4.474;2024-01-11T02:49:17;55.28;;;37.88;;
25932;SDS011;13731;51.166;4.474;2024-01-11T02:51:43;53.03;;;37.15;;
25932;SDS011;13731;51.166;4.474;2024-01-11T02:54:10;48.72;;;35.83;;
25932;SDS011;13731;51.166;4.474;2024-01-11T02:56:36;51.28;;;37.47;;
25932;SDS011;13731;51.166;4.474;2024-01-11T02:59:02;57.28;;;37.28;;
25932;SDS011;13731;51.166;4.474;2024-01-11T03:01:28;53.97;;;37.13;;
25932;SDS011;13731;51.166;4.474;2024-01-11T03:03:55;54.50;;;37.38;;
25932;SDS011;13731;51.166;4.474;2024-01-11T03:06:21;53.28;;;37.40;;
25932;SDS011;13731;51.166;4.474;2024-01-11T03:08:48;51.78;;;35.88;;
25932;SDS011;13731;51.166;4.474;2024-01-11T03:11:14;54.25;;;37.13;;
25932;SDS011;13731;51.166;4.474;2024-01-11T03:13:41;54.63;;;36.80;;
25932;SDS011;13731;51.166;4.474;2024-01-11T03:16:07;50.13;;;36.75;;
25932;SDS011;13731;51.166;4.474;2024-01-11T03:18:33;53.90;;;36.67;;
25932;SDS011;13731;51.166;4.474;2024-01-11T03:20:59;50.55;;;37.30;;
25932;SDS011;13731;51.166;4.474;2024-01-11T03:23:25;53.40;;;37.13;;
25932;SDS011;13731;51.166;4.474;2024-01-11T03:25:50;54.15;;;39.20;;
25932;SDS011;13731;51.166;4.474;2024-01-11T03:28:17;50.92;;;37.33;;
25932;SDS011;13731;51.166;4.474;2024-01-11T03:30:43;54.78;;;37.90;;
25932;SDS011;13731;51.166;4.474;2024-01-11T03:33:09;50.55;;;36.20;;
25932;SDS011;13731;51.166;4.474;2024-01-11T03:35:35;54.65;;;37.28;;
25932;SDS011;13731;51.166;4.474;2024-01-11T03:38:04;53.85;;;38.92;;
25932;SDS011;13731;51.166;4.474;2024-01-11T03:40:30;58.15;;;38.47;;
25932;SDS011;13731;51.166;4.474;2024-01-11T03:42:56;54.50;;;37.22;;
25932;SDS011;13731;51.166;4.474;2024-01-11T03:45:22;55.55;;;36.97;;
25932;SDS011;13731;51.166;4.474;2024-01-11T03:47:48;50.25;;;37.97;;
25932;SDS011;13731;51.166;4.474;2024-01-11T03:50:15;54.53;;;36.22;;
25932;SDS011;13731;51.166;4.474;2024-01-11T03:52:41;51.80;;;37.50;;
25932;SDS011;13731;51.166;4.474;2024-01-11T03:55:08;58.95;;;39.47;;
25932;SDS011;13731;51.166;4.474;2024-01-11T03:57:34;51.10;;;35.85;;
25932;SDS011;13731;51.166;4.474;2024-01-11T04:00:00;52.47;;;36.92;;
25932;SDS011;13731;51.166;4.474;2024-01-11T04:02:26;61.72;;;38.83;;
25932;SDS011;13731;51.166;4.474;2024-01-11T04:04:52;52.92;;;36.13;;
25932;SDS011;13731;51.166;4.474;2024-01-11T04:07:19;54.63;;;36.33;;
25932;SDS011;13731;51.166;4.474;2024-01-11T04:09:45;54.88;;;37.38;;
25932;SDS011;13731;51.166;4.474;2024-01-11T04:12:11;56.42;;;38.30;;
25932;SDS011;13731;51.166;4.474;2024-01-11T04:14:40;53.05;;;37.40;;
25932;SDS011;13731;51.166;4.474;2024-01-11T04:19:32;52.25;;;36.70;;
25932;SDS011;13731;51.166;4.474;2024-01-11T04:21:58;55.10;;;38.83;;
25932;SDS011;13731;51.166;4.474;2024-01-11T04:24:23;55.97;;;39.35;;
25932;SDS011;13731;51.166;4.474;2024-01-11T04:26:50;53.13;;;37.92;;
25932;SDS011;13731;51.166;4.474;2024-01-11T04:29:15;56.03;;;38.42;;
25932;SDS011;13731;51.166;4.474;2024-01-11T04:31:42;56.95;;;38.15;;
25932;SDS011;13731;51.166;4.474;2024-01-11T04:34:08;54.03;;;38.42;;
25932;SDS011;13731;51.166;4.474;2024-01-11T04:36:37;53.33;;;37.15;;
25932;SDS011;13731;51.166;4.474;2024-01-11T04:39:04;58.97;;;38.42;;
25932;SDS011;13731;51.166;4.474;2024-01-11T04:41:31;57.75;;;38.38;;
25932;SDS011;13731;51.166;4.474;2024-01-11T04:43:57;53.95;;;39.03;;
25932;SDS011;13731;51.166;4.474;2024-01-11T04:46:23;53.97;;;37.85;;
25932;SDS011;13731;51.166;4.474;2024-01-11T04:48:49;55.22;;;38.83;;
25932;SDS011;13731;51.166;4.474;2024-01-11T04:51:15;57.17;;;38.10;;
25932;SDS011;13731;51.166;4.474;2024-01-11T04:53:42;59.08;;;38.67;;
25932;SDS011;13731;51.166;4.474;2024-01-11T04:56:09;58.83;;;39.75;;
25932;SDS011;13731;51.166;4.474;2024-01-11T04:58:38;58.45;;;37.20;;
25932;SDS011;13731;51.166;4.474;2024-01-11T05:01:07;59.33;;;37.30;;
25932;SDS011;13731;51.166;4.474;2024-01-11T05:03:37;56.50;;;38.15;;
25932;SDS011;13731;51.166;4.474;2024-01-11T05:06:03;59.50;;;39.20;;
25932;SDS011;13731;51.166;4.474;2024-01-11T05:08:29;54.65;;;37.78;;
25932;SDS011;13731;51.166;4.474;2024-01-11T05:10:55;60.38;;;39.30;;
25932;SDS011;13731;51.166;4.474;2024-01-11T05:13:22;58.30;;;38.78;;
25932;SDS011;13731;51.166;4.474;2024-01-11T05:15:48;57.55;;;39.88;;
25932;SDS011;13731;51.166;4.474;2024-01-11T05:18:14;60.28;;;40.30;;
25932;SDS011;13731;51.166;4.474;2024-01-11T05:20:40;55.83;;;39.22;;
25932;SDS011;13731;51.166;4.474;2024-01-11T05:23:06;62.15;;;41.90;;
25932;SDS011;13731;51.166;4.474;2024-01-11T05:25:32;61.40;;;40.47;;
25932;SDS011;13731;51.166;4.474;2024-01-11T05:28:01;55.60;;;39.80;;
25932;SDS011;13731;51.166;4.474;2024-01-11T05:30:29;57.78;;;37.83;;
25932;SDS011;13731;51.166;4.474;2024-01-11T05:32:56;63.27;;;39.97;;
25932;SDS011;13731;51.166;4.474;2024-01-11T05:35:23;58.38;;;40.75;;
25932;SDS011;13731;51.166;4.474;2024-01-11T05:37:49;58.42;;;39.90;;
25932;SDS011;13731;51.166;4.474;2024-01-11T05:40:16;58.30;;;40.75;;
25932;SDS011;13731;51.166;4.474;2024-01-11T05:42:42;62.13;;;42.55;;
25932;SDS011;13731;51.166;4.474;2024-01-11T05:45:08;60.33;;;42.97;;
25932;SDS011;13731;51.166;4.474;2024-01-11T05:47:34;58.92;;;43.78;;
25932;SDS011;13731;51.166;4.474;2024-01-11T05:50:00;60.92;;;43.45;;
25932;SDS011;13731;51.166;4.474;2024-01-11T05:52:27;58.33;;;43.63;;
25932;SDS011;13731;51.166;4.474;2024-01-11T05:54:55;54.72;;;42.70;;
25932;SDS011;13731;51.166;4.474;2024-01-11T05:57:21;65.97;;;41.30;;
25932;SDS011;13731;51.166;4.474;2024-01-11T05:59:46;58.97;;;39.42;;
25932;SDS011;13731;51.166;4.474;2024-01-11T06:02:13;53.25;;;38.30;;
25932;SDS011;13731;51.166;4.474;2024-01-11T06:04:39;56.00;;;39.63;;
25932;SDS011;13731;51.166;4.474;2024-01-11T06:07:05;57.80;;;38.88;;
25932;SDS011;13731;51.166;4.474;2024-01-11T06:09:32;57.50;;;38.65;;
25932;SDS011;13731;51.166;4.474;2024-01-11T06:11:58;58.97;;;41.05;;
25932;SDS011;13731;51.166;4.474;2024-01-11T06:14:24;57.30;;;39.20;;
25932;SDS011;13731;51.166;4.474;2024-01-11T06:16:51;54.00;;;38.22;;
25932;SDS011;13731;51.166;4.474;2024-01-11T06:19:17;62.15;;;43.10;;
25932;SDS011;13731;51.166;4.474;2024-01-11T06:21:43;58.65;;;40.50;;
25932;SDS011;13731;51.166;4.474;2024-01-11T06:24:09;59.65;;;42.17;;
25932;SDS011;13731;51.166;4.474;2024-01-11T06:26:34;54.40;;;39.33;;
25932;SDS011;13731;51.166;4.474;2024-01-11T06:29:01;61.08;;;40.17;;
25932;SDS011;13731;51.166;4.474;2024-01-11T06:31:26;63.45;;;44.85;;
25932;SDS011;13731;51.166;4.474;2024-01-11T06:33:52;55.80;;;40.92;;
25932;SDS011;13731;51.166;4.474;2024-01-11T06:36:18;59.15;;;40.92;;
25932;SDS011;13731;51.166;4.474;2024-01-11T06:38:44;61.63;;;42.47;;
25932;SDS011;13731;51.166;4.474;2024-01-11T06:41:10;62.75;;;43.58;;
25932;SDS011;13731;51.166;4.474;2024-01-11T06:43:36;55.83;;;43.60;;
25932;SDS011;13731;51.166;4.474;2024-01-11T06:46:06;60.67;;;43.10;;
25932;SDS011;13731;51.166;4.474;2024-01-11T06:48:34;56.30;;;41.90;;
25932;SDS011;13731;51.166;4.474;2024-01-11T06:51:00;63.78;;;47.88;;
25932;SDS011;13731;51.166;4.474;2024-01-11T06:53:26;64.82;;;45.95;;
25932;SDS011;13731;51.166;4.474;2024-01-11T06:55:51;63.88;;;48.90;;
25932;SDS011;13731;51.166;4.474;2024-01-11T06:58:20;61.28;;;48.05;;
25932;SDS011;13731;51.166;4.474;2024-01-11T07:00:49;61.67;;;49.35;;
25932;SDS011;13731;51.166;4.474;2024-01-11T07:03:16;62.60;;;52.75;;
25932;SDS011;13731;51.166;4.474;2024-01-11T07:05:43;65.93;;;53.65;;
25932;SDS011;13731;51.166;4.474;2024-01-11T07:08:09;63.60;;;53.75;;
25932;SDS011;13731;51.166;4.474;2024-01-11T07:10:35;78.80;;;56.97;;
25932;SDS011;13731;51.166;4.474;2024-01-11T07:13:02;62.00;;;52.75;;
25932;SDS011;13731;51.166;4.474;2024-01-11T07:15:28;67.63;;;52.45;;
25932;SDS011;13731;51.166;4.474;2024-01-11T07:17:54;68.22;;;54.97;;
25932;SDS011;13731;51.166;4.474;2024-01-11T07:20:20;63.70;;;48.25;;
25932;SDS011;13731;51.166;4.474;2024-01-11T07:22:46;65.50;;;54.92;;
25932;SDS011;13731;51.166;4.474;2024-01-11T07:25:12;68.45;;;54.35;;
25932;SDS011;13731;51.166;4.474;2024-01-11T07:27:39;67.07;;;54.70;;
25932;SDS011;13731;51.166;4.474;2024-01-11T07:30:05;70.07;;;52.00;;
25932;SDS011;13731;51.166;4.474;2024-01-11T07:32:32;64.47;;;52.75;;
25932;SDS011;13731;51.166;4.474;2024-01-11T07:34:57;60.78;;;46.40;;
25932;SDS011;13731;51.166;4.474;2024-01-11T07:37:23;65.53;;;45.63;;
25932;SDS011;13731;51.166;4.474;2024-01-11T07:39:51;62.38;;;48.53;;
25932;SDS011;13731;51.166;4.474;2024-01-11T07:42:17;58.28;;;47.03;;
25932;SDS011;13731;51.166;4.474;2024-01-11T07:44:44;58.83;;;43.22;;
25932;SDS011;13731;51.166;4.474;2024-01-11T07:47:10;60.78;;;43.88;;
25932;SDS011;13731;51.166;4.474;2024-01-11T07:49:36;61.67;;;47.65;;
25932;SDS011;13731;51.166;4.474;2024-01-11T07:52:02;58.50;;;44.47;;
25932;SDS011;13731;51.166;4.474;2024-01-11T07:54:29;60.03;;;44.80;;
25932;SDS011;13731;51.166;4.474;2024-01-11T07:56:56;60.95;;;49.65;;
25932;SDS011;13731;51.166;4.474;2024-01-11T07:59:22;63.35;;;49.22;;
25932;SDS011;13731;51.166;4.474;2024-01-11T08:01:48;60.10;;;49.88;;
25932;SDS011;13731;51.166;4.474;2024-01-11T08:04:17;62.00;;;44.90;;
25932;SDS011;13731;51.166;4.474;2024-01-11T08:06:46;62.17;;;45.50;;
25932;SDS011;13731;51.166;4.474;2024-01-11T08:09:12;60.30;;;44.95;;
25932;SDS011;13731;51.166;4.474;2024-01-11T08:11:38;59.47;;;42.95;;
25932;SDS011;13731;51.166;4.474;2024-01-11T08:14:06;60.08;;;43.10;;
25932;SDS011;13731;51.166;4.474;2024-01-11T08:16:32;55.90;;;41.75;;
25932;SDS011;13731;51.166;4.474;2024-01-11T08:18:58;71.13;;;49.70;;
25932;SDS011;13731;51.166;4.474;2024-01-11T08:21:26;59.17;;;41.88;;
25932;SDS011;13731;51.166;4.474;2024-01-11T08:23:53;55.88;;;41.53;;
25932;SDS011;13731;51.166;4.474;2024-01-11T08:26:20;59.47;;;42.20;;
25932;SDS011;13731;51.166;4.474;2024-01-11T08:28:47;63.65;;;40.33;;
25932;SDS011;13731;51.166;4.474;2024-01-11T08:31:13;56.72;;;42.05;;
25932;SDS011;13731;51.166;4.474;2024-01-11T08:33:39;55.08;;;41.33;;
25932;SDS011;13731;51.166;4.474;2024-01-11T08:36:05;59.92;;;41.95;;
25932;SDS011;13731;51.166;4.474;2024-01-11T08:38:38;54.22;;;40.03;;
25932;SDS011;13731;51.166;4.474;2024-01-11T08:41:06;60.13;;;40.60;;
25932;SDS011;13731;51.166;4.474;2024-01-11T08:43:32;53.25;;;40.20;;
25932;SDS011;13731;51.166;4.474;2024-01-11T08:45:58;54.90;;;40.72;;
25932;SDS011;13731;51.166;4.474;2024-01-11T08:48:28;61.83;;;40.28;;
25932;SDS011;13731;51.166;4.474;2024-01-11T08:50:54;55.08;;;37.35;;
25932;SDS011;13731;51.166;4.474;2024-01-11T08:53:19;56.53;;;37.13;;
25932;SDS011;13731;51.166;4.474;2024-01-11T08:55:46;56.65;;;37.65;;
25932;SDS011;13731;51.166;4.474;2024-01-11T08:58:13;53.90;;;36.42;;
25932;SDS011;13731;51.166;4.474;2024-01-11T09:00:39;54.08;;;36.78;;
25932;SDS011;13731;51.166;4.474;2024-01-11T09:03:05;51.42;;;33.83;;
25932;SDS011;13731;51.166;4.474;2024-01-11T09:05:31;54.13;;;35.40;;
25932;SDS011;13731;51.166;4.474;2024-01-11T09:07:57;55.60;;;35.08;;
25932;SDS011;13731;51.166;4.474;2024-01-11T09:10:23;59.05;;;36.47;;
25932;SDS011;13731;51.166;4.474;2024-01-11T09:12:48;58.00;;;37.33;;
25932;SDS011;13731;51.166;4.474;2024-01-11T09:15:14;54.75;;;34.63;;
25932;SDS011;13731;51.166;4.474;2024-01-11T09:17:40;50.88;;;33.88;;
25932;SDS011;13731;51.166;4.474;2024-01-11T09:20:06;56.22;;;35.25;;
25932;SDS011;13731;51.166;4.474;2024-01-11T09:22:32;55.65;;;33.67;;
25932;SDS011;13731;51.166;4.474;2024-01-11T09:24:58;53.35;;;33.40;;
25932;SDS011;13731;51.166;4.474;2024-01-11T09:27:25;59.85;;;34.50;;
25932;SDS011;13731;51.166;4.474;2024-01-11T09:29:52;58.67;;;35.57;;
25932;SDS011;13731;51.166;4.474;2024-01-11T09:32:18;55.90;;;33.35;;
25932;SDS011;13731;51.166;4.474;2024-01-11T09:34:45;52.83;;;34.47;;
25932;SDS011;13731;51.166;4.474;2024-01-11T09:37:11;53.75;;;34.03;;
25932;SDS011;13731;51.166;4.474;2024-01-11T09:39:37;61.75;;;36.05;;
25932;SDS011;13731;51.166;4.474;2024-01-11T09:42:06;52.00;;;34.63;;
25932;SDS011;13731;51.166;4.474;2024-01-11T09:44:35;55.40;;;34.63;;
25932;SDS011;13731;51.166;4.474;2024-01-11T09:47:02;67.35;;;36.13;;
25932;SDS011;13731;51.166;4.474;2024-01-11T09:49:31;52.75;;;39.10;;
25932;SDS011;13731;51.166;4.474;2024-01-11T09:51:59;54.22;;;34.90;;
25932;SDS011;13731;51.166;4.474;2024-01-11T09:54:26;63.47;;;36.08;;
25932;SDS011;13731;51.166;4.474;2024-01-11T09:56:55;50.60;;;34.20;;
25932;SDS011;13731;51.166;4.474;2024-01-11T10:01:51;52.90;;;34.22;;
25932;SDS011;13731;51.166;4.474;2024-01-11T10:04:18;47.80;;;33.22;;
25932;SDS011;13731;51.166;4.474;2024-01-11T10:06:44;52.67;;;31.63;;
25932;SDS011;13731;51.166;4.474;2024-01-11T10:09:10;62.70;;;31.83;;
25932;SDS011;13731;51.166;4.474;2024-01-11T10:11:37;46.85;;;29.02;;
25932;SDS011;13731;51.166;4.474;2024-01-11T10:14:03;48.30;;;29.35;;
25932;SDS011;13731;51.166;4.474;2024-01-11T10:16:30;43.95;;;26.15;;
25932;SDS011;13731;51.166;4.474;2024-01-11T10:18:56;40.33;;;28.42;;
25932;SDS011;13731;51.166;4.474;2024-01-11T10:21:23;46.88;;;32.17;;
25932;SDS011;13731;51.166;4.474;2024-01-11T10:23:50;44.45;;;29.70;;
25932;SDS011;13731;51.166;4.474;2024-01-11T10:26:18;42.38;;;27.45;;
25932;SDS011;13731;51.166;4.474;2024-01-11T10:28:44;45.08;;;33.33;;
25932;SDS011;13731;51.166;4.474;2024-01-11T10:31:11;55.38;;;48.75;;
25932;SDS011;13731;51.166;4.474;2024-01-11T10:33:37;47.47;;;37.03;;
25932;SDS011;13731;51.166;4.474;2024-01-11T10:36:04;54.40;;;32.00;;
25932;SDS011;13731;51.166;4.474;2024-01-11T10:38:31;50.72;;;45.33;;
25932;SDS011;13731;51.166;4.474;2024-01-11T10:41:00;47.45;;;30.23;;
25932;SDS011;13731;51.166;4.474;2024-01-11T10:43:32;46.55;;;28.90;;
25932;SDS011;13731;51.166;4.474;2024-01-11T10:46:03;39.80;;;27.25;;
25932;SDS011;13731;51.166;4.474;2024-01-11T10:48:31;44.55;;;27.83;;
25932;SDS011;13731;51.166;4.474;2024-01-11T10:51:03;45.70;;;31.20;;
25932;SDS011;13731;51.166;4.474;2024-01-11T10:53:38;44.47;;;29.88;;
25932;SDS011;13731;51.166;4.474;2024-01-11T10:56:11;50.42;;;44.75;;
25932;SDS011;13731;51.166;4.474;2024-01-11T10:58:39;52.53;;;41.28;;
25932;SDS011;13731;51.166;4.474;2024-01-11T11:01:07;42.83;;;28.58;;
25932;SDS011;13731;51.166;4.474;2024-01-11T11:03:35;40.47;;;26.92;;
25932;SDS011;13731;51.166;4.474;2024-01-11T11:06:02;54.95;;;49.22;;
25932;SDS011;13731;51.166;4.474;2024-01-11T11:08:31;41.55;;;27.60;;
25932;SDS011;13731;51.166;4.474;2024-01-11T11:10:57;42.72;;;26.30;;
25932;SDS011;13731;51.166;4.474;2024-01-11T11:13:24;41.67;;;27.50;;
25932;SDS011;13731;51.166;4.474;2024-01-11T11:15:54;39.67;;;29.95;;
25932;SDS011;13731;51.166;4.474;2024-01-11T11:18:23;45.08;;;27.52;;
25932;SDS011;13731;51.166;4.474;2024-01-11T11:20:50;42.50;;;27.27;;
25932;SDS011;13731;51.166;4.474;2024-01-11T11:23:18;42.38;;;26.85;;
25932;SDS011;13731;51.166;4.474;2024-01-11T11:25:48;42.42;;;26.17;;
25932;SDS011;13731;51.166;4.474;2024-01-11T11:28:15;41.35;;;26.20;;
25932;SDS011;13731;51.166;4.474;2024-01-11T11:30:44;43.70;;;26.83;;
25932;SDS011;13731;51.166;4.474;2024-01-11T11:33:20;42.20;;;26.95;;
25932;SDS011;13731;51.166;4.474;2024-01-11T11:35:48;38.67;;;24.50;;
25932;SDS011;13731;51.166;4.474;2024-01-11T11:38:17;44.50;;;27.00;;
25932;SDS011;13731;51.166;4.474;2024-01-11T11:40:46;42.38;;;27.20;;
25932;SDS011;13731;51.166;4.474;2024-01-11T11:43:16;37.45;;;25.90;;
25932;SDS011;13731;51.166;4.474;2024-01-11T11:45:47;37.42;;;24.08;;
25932;SDS011;13731;51.166;4.474;2024-01-11T11:51:10;38.58;;;26.33;;
25932;SDS011;13731;51.166;4.474;2024-01-11T11:53:41;40.20;;;25.65;;
25932;SDS011;13731;51.166;4.474;2024-01-11T11:56:07;38.65;;;26.95;;
25932;SDS011;13731;51.166;4.474;2024-01-11T11:58:38;41.92;;;27.05;;
25932;SDS011;13731;51.166;4.474;2024-01-11T12:01:04;42.70;;;27.75;;
25932;SDS011;13731;51.166;4.474;2024-01-11T12:03:33;35.47;;;26.35;;
25932;SDS011;13731;51.166;4.474;2024-01-11T12:06:04;36.70;;;25.23;;
25932;SDS011;13731;51.166;4.474;2024-01-11T12:08:31;35.13;;;26.92;;
25932;SDS011;13731;51.166;4.474;2024-01-11T12:10:58;42.63;;;28.30;;
25932;SDS011;13731;51.166;4.474;2024-01-11T12:13:24;35.40;;;27.13;;
25932;SDS011;13731;51.166;4.474;2024-01-11T12:15:51;33.15;;;25.73;;
25932;SDS011;13731;51.166;4.474;2024-01-11T12:18:18;34.90;;;24.73;;
25932;SDS011;13731;51.166;4.474;2024-01-11T12:20:44;36.13;;;24.92;;
25932;SDS011;13731;51.166;4.474;2024-01-11T12:23:11;35.95;;;25.90;;
25932;SDS011;13731;51.166;4.474;2024-01-11T12:28:06;33.50;;;24.58;;
25932;SDS011;13731;51.166;4.474;2024-01-11T12:30:32;33.22;;;24.23;;
25932;SDS011;13731;51.166;4.474;2024-01-11T12:32:59;35.38;;;24.77;;
25932;SDS011;13731;51.166;4.474;2024-01-11T12:35:29;36.97;;;23.42;;
25932;SDS011;13731;51.166;4.474;2024-01-11T12:38:00;30.05;;;24.08;;
25932;SDS011;13731;51.166;4.474;2024-01-11T12:40:34;32.25;;;23.83;;
25932;SDS011;13731;51.166;4.474;2024-01-11T12:43:03;34.38;;;25.40;;
25932;SDS011;13731;51.166;4.474;2024-01-11T12:45:29;34.15;;;25.33;;
25932;SDS011;13731;51.166;4.474;2024-01-11T12:47:58;34.47;;;23.38;;
25932;SDS011;13731;51.166;4.474;2024-01-11T12:50:25;32.60;;;23.63;;
25932;SDS011;13731;51.166;4.474;2024-01-11T12:53:11;36.15;;;26.73;;
25932;SDS011;13731;51.166;4.474;2024-01-11T12:55:46;38.92;;;24.25;;
25932;SDS011;13731;51.166;4.474;2024-01-11T12:58:18;33.72;;;24.45;;
25932;SDS011;13731;51.166;4.474;2024-01-11T13:00:47;37.53;;;25.42;;
25932;SDS011;13731;51.166;4.474;2024-01-11T13:03:14;36.08;;;25.75;;
25932;SDS011;13731;51.166;4.474;2024-01-11T13:05:40;38.05;;;24.50;;
25932;SDS011;13731;51.166;4.474;2024-01-11T13:08:08;38.67;;;26.80;;
25932;SDS011;13731;51.166;4.474;2024-01-11T13:10:34;34.60;;;24.00;;
25932;SDS011;13731;51.166;4.474;2024-01-11T13:13:01;34.05;;;24.90;;
25932;SDS011;13731;51.166;4.474;2024-01-11T13:15:28;31.20;;;23.35;;
25932;SDS011;13731;51.166;4.474;2024-01-11T13:17:55;37.83;;;25.90;;
25932;SDS011;13731;51.166;4.474;2024-01-11T13:20:22;35.22;;;26.33;;
25932;SDS011;13731;51.166;4.474;2024-01-11T13:22:48;32.60;;;23.77;;
25932;SDS011;13731;51.166;4.474;2024-01-11T13:25:15;35.63;;;23.98;;
25932;SDS011;13731;51.166;4.474;2024-01-11T13:27:41;40.38;;;28.58;;
25932;SDS011;13731;51.166;4.474;2024-01-11T13:30:07;34.10;;;29.08;;
25932;SDS011;13731;51.166;4.474;2024-01-11T13:32:33;38.90;;;28.05;;
25932;SDS011;13731;51.166;4.474;2024-01-11T13:35:00;34.17;;;27.15;;
25932;SDS011;13731;51.166;4.474;2024-01-11T13:37:26;34.75;;;26.80;;
25932;SDS011;13731;51.166;4.474;2024-01-11T13:39:52;36.75;;;27.70;;
25932;SDS011;13731;51.166;4.474;2024-01-11T13:42:19;39.08;;;25.77;;
25932;SDS011;13731;51.166;4.474;2024-01-11T13:44:45;42.45;;;27.58;;
25932;SDS011;13731;51.166;4.474;2024-01-11T13:47:11;34.33;;;26.73;;
25932;SDS011;13731;51.166;4.474;2024-01-11T13:49:38;48.58;;;43.47;;
25932;SDS011;13731;51.166;4.474;2024-01-11T13:52:04;41.05;;;29.20;;
25932;SDS011;13731;51.166;4.474;2024-01-11T13:54:31;38.30;;;28.55;;
25932;SDS011;13731;51.166;4.474;2024-01-11T13:56:58;41.65;;;27.35;;
25932;SDS011;13731;51.166;4.474;2024-01-11T13:59:23;35.97;;;27.38;;
25932;SDS011;13731;51.166;4.474;2024-01-11T14:01:49;39.03;;;26.15;;
25932;SDS011;13731;51.166;4.474;2024-01-11T14:04:15;38.15;;;26.15;;
25932;SDS011;13731;51.166;4.474;2024-01-11T14:06:41;37.35;;;25.65;;
25932;SDS011;13731;51.166;4.474;2024-01-11T14:09:07;37.97;;;25.65;;
25932;SDS011;13731;51.166;4.474;2024-01-11T14:11:34;37.60;;;26.02;;
25932;SDS011;13731;51.166;4.474;2024-01-11T14:14:04;42.20;;;26.77;;
25932;SDS011;13731;51.166;4.474;2024-01-11T14:16:30;40.10;;;30.83;;
25932;SDS011;13731;51.166;4.474;2024-01-11T14:18:56;34.42;;;29.75;;
25932;SDS011;13731;51.166;4.474;2024-01-11T14:21:22;38.25;;;27.05;;
25932;SDS011;13731;51.166;4.474;2024-01-11T14:23:51;42.60;;;25.73;;
25932;SDS011;13731;51.166;4.474;2024-01-11T14:26:17;37.80;;;26.30;;
25932;SDS011;13731;51.166;4.474;2024-01-11T14:28:43;28.25;;;18.95;;